ETHA 192320Z AUTO 07006KT 9999 // ////// 18/11 Q1027 /// ETHA 192220Z AUTO 21005KT 9999 // ////// 19/11 Q1026 /// ETHA 192120Z AUTO 27003KT 9999 // ////// 18/11 Q1025 /// ETHA 192020Z AUTO 24003KT 9999 // ////// 18/11 Q1025 /// ETHA 191920Z AUTO 25006KT 9999 // ////// 20/11 Q1024 /// ETHA 191820Z 26007KT 9999 VCSH FEW060CB SCT190 BKN280 21/10 Q1024 BLU+ ETHA 191720Z 28018G32KT 9999 FEW060CB BKN300 23/12 Q1023 BLU+ ETHA 191620Z 27009KT 9999 FEW060CB BKN350 26/12 Q1023 BLU+ ETHA 191520Z 30007KT 9999 FEW060CB BKN350 27/11 Q1023 BLU+FCST CNL ETHA 191420Z 30010KT 9999 FEW060CB BKN350 26/11 Q1023 BLU+BLU+ ETHA 191320Z 27013KT 9999 FEW060TCU BKN350 26/11 Q1023 BLU+BLU+ ETHA 191220Z 29015KT 9999 FEW060CB BKN350 26/11 Q1024 BLU+BLU+ ETHA 191120Z 27013KT 9999 FEW060 BKN350 26/12 Q1024 BLU+BLU+ ETHA 191020Z 28016KT 9999 FEW045 25/13 Q1024 BLU+BLU+ ETHA 190920Z 27014KT 9999 FEW045 24/13 Q1024 BLU+BLU+ ETHA 190820Z 26013KT 9999 FEW040 SCT350 23/13 Q1024 BLU+BLU+ ETHA 190720Z VRB02KT 9999 SCT350 19/12 Q1024 BLU+BLU+ ETHA 190620Z 24003KT 9999 FEW150 SCT350 15/12 Q1024 BLU+BLU+ ETHA 190520Z 25002KT 9999 FEW150 SCT350 11/09 Q1023 BLU+BLU+ ETHA 190420Z 24003KT 9999 FEW150 SCT350 10/08 Q1023 BLU+BLU+ ETHA 190320Z 25002KT 9999 MIFG FEW350 09/08 Q1023 BLU+ ETHA 190220Z AUTO 22004KT 9999 // ////// 10/08 Q1023 /// ETHA 190120Z AUTO VRB01KT 9999 // ////// 11/08 Q1023 /// ETHA 190020Z AUTO 00000KT 9999 // ////// 12/08 Q1023 /// ETHA 182320Z AUTO 08002KT 9999 // ////// 12/07 Q1023 /// ETHA 182220Z AUTO 06003KT 9999 // ////// 13/08 Q1024 /// ETHA 182120Z AUTO 07006KT 9999 // ////// 15/08 Q1024 /// ETHA 182020Z AUTO 07005KT 9999 // ////// 16/08 Q1024 /// ETHA 181920Z AUTO 08008KT 9999 // ////// 17/09 Q1024 /// ETHA 181820Z 08012KT 9999 SCT300 19/09 Q1024 BLU+ ETHA 181720Z 09012KT 9999 FEW050 SCT300 21/09 Q1024 BLU+ ETHA 181620Z 07014KT 9999 FEW050 SCT300 22/10 Q1024 BLU+ ETHA 181520Z 07012KT 9999 FEW050 BKN300 23/09 Q1024 BLU+ ETHA 181420Z 08013KT 9999 FEW050 BKN320 23/08 Q1024 BLU+FCST CNL ETHA 181320Z 07013KT 9999 FEW050 BKN320 23/08 Q1024 BLU+BLU+

METAR Messwerte "ALTENSTADT/SCHON" ETHA

Zurück zur Übersicht

Ortsname
Ländercode / m ü. NN
Zeit Temperatur Taupunkt Rel.
Luftfeuchte
Luftdruck:
Altimeter
NN
Station
Wind in Beaufort
(Knoten)
Sichtweite
(Meter)
Wolken
(Meter über Grund)
Wettererscheinung
ALTENSTADT/SCHON
DE 738
Fr 20.05. 01:20181164 %1027
1026
940
ONO 2 (6)>= 10000  
ALTENSTADT/SCHON
DE 738
Fr 20.05. 00:20191160 %1026
1025
940
SSW 2 (5)>= 10000  
ALTENSTADT/SCHON
DE 738
Do 19.05. 23:20181164 %1025
1024
939
W 2 (3)>= 10000  
ALTENSTADT/SCHON
DE 738
Do 19.05. 22:20181164 %1025
1024
939
WSW 2 (3)>= 10000  
ALTENSTADT/SCHON
DE 738
Do 19.05. 21:20201156 %1024
1023
938
WSW 2 (6)>= 10000  
ALTENSTADT/SCHON
DE 738
Do 19.05. 20:20211049 %1024
1022
938
W 3 (7)>= 10000Stark bewölkt (8500)
Wolkig (5800)
Leicht bewölkt Cb (1800)
 
ALTENSTADT/SCHON
DE 738
Do 19.05. 19:20231250 %1023
1021
937
W 5 (18) - 7 (32)>= 10000Stark bewölkt (9100)
Leicht bewölkt Cb (1800)
 
ALTENSTADT/SCHON
DE 738
Do 19.05. 18:20261242 %1023
1020
937
W 3 (9)>= 10000Stark bewölkt (11000)
Leicht bewölkt Cb (1800)
 
ALTENSTADT/SCHON
DE 738
Do 19.05. 17:20271137 %1023
1020
937
WNW 3 (7)>= 10000Stark bewölkt (11000)
Leicht bewölkt Cb (1800)
 
ALTENSTADT/SCHON
DE 738
Do 19.05. 16:20261139 %1023
1020
937
WNW 3 (10)>= 10000Stark bewölkt (11000)
Leicht bewölkt Cb (1800)
 
ALTENSTADT/SCHON
DE 738
Do 19.05. 15:20261139 %1023
1020
937
W 4 (13)>= 10000Stark bewölkt (11000)
Leicht bewölkt (1800)
 
ALTENSTADT/SCHON
DE 738
Do 19.05. 14:20261139 %1024
1021
938
WNW 4 (15)>= 10000Stark bewölkt (11000)
Leicht bewölkt Cb (1800)
 
ALTENSTADT/SCHON
DE 738
Do 19.05. 13:20261242 %1024
1021
938
W 4 (13)>= 10000Stark bewölkt (11000)
Leicht bewölkt (1800)
 
ALTENSTADT/SCHON
DE 738
Do 19.05. 12:20251347 %1024
1021
938
W 5 (16)>= 10000Leicht bewölkt (1400) 
ALTENSTADT/SCHON
DE 738
Do 19.05. 11:20241350 %1024
1021
938
W 4 (14)>= 10000Leicht bewölkt (1400) 
ALTENSTADT/SCHON
DE 738
Do 19.05. 10:20231353 %1024
1022
938
W 4 (13)>= 10000Wolkig (11000)
Leicht bewölkt (1200)
 
ALTENSTADT/SCHON
DE 738
Do 19.05. 09:20191264 %1024
1023
938
Uml 1 (2)>= 10000Wolkig (11000) 
ALTENSTADT/SCHON
DE 738
Do 19.05. 08:20151282 %1024
1024
938
WSW 2 (3)>= 10000Wolkig (11000)
Leicht bewölkt (4600)
 
ALTENSTADT/SCHON
DE 738
Do 19.05. 07:2011987 %1023
1024
937
WSW 1 (2)>= 10000Wolkig (11000)
Leicht bewölkt (4600)
 
ALTENSTADT/SCHON
DE 738
Do 19.05. 06:2010887 %1023
1025
937
WSW 2 (3)>= 10000Wolkig (11000)
Leicht bewölkt (4600)
 
ALTENSTADT/SCHON
DE 738
Do 19.05. 05:209893 %1023
1025
937
WSW 1 (2)>= 10000Leicht bewölkt (11000)Boden-Nebel
ALTENSTADT/SCHON
DE 738
Do 19.05. 04:2010887 %1023
1025
937
SW 2 (4)>= 10000  
ALTENSTADT/SCHON
DE 738
Do 19.05. 03:2011882 %1023
1024
937
Uml 1 (1)>= 10000  
ALTENSTADT/SCHON
DE 738
Do 19.05. 02:2012876 %1023
1024
937
Windstill>= 10000  
ALTENSTADT/SCHON
DE 738
Do 19.05. 01:2012771 %1023
1024
937
O 1 (2)>= 10000  
ALTENSTADT/SCHON
DE 738
Do 19.05. 00:2013872 %1024
1025
938
ONO 2 (3)>= 10000  
ALTENSTADT/SCHON
DE 738
Mi 18.05. 23:2015863 %1024
1024
938
ONO 2 (6)>= 10000  
ALTENSTADT/SCHON
DE 738
Mi 18.05. 22:2016859 %1024
1024
938
ONO 2 (5)>= 10000  
ALTENSTADT/SCHON
DE 738
Mi 18.05. 21:2017959 %1024
1024
938
O 3 (8)>= 10000  
ALTENSTADT/SCHON
DE 738
Mi 18.05. 20:2019952 %1024
1023
938
O 4 (12)>= 10000Wolkig (9100) 
ALTENSTADT/SCHON
DE 738
Mi 18.05. 19:2021946 %1024
1022
938
O 4 (12)>= 10000Wolkig (9100)
Leicht bewölkt (1500)
 
ALTENSTADT/SCHON
DE 738
Mi 18.05. 18:20221046 %1024
1022
938
ONO 4 (14)>= 10000Wolkig (9100)
Leicht bewölkt (1500)
 
ALTENSTADT/SCHON
DE 738
Mi 18.05. 17:2023941 %1024
1022
938
ONO 4 (12)>= 10000Stark bewölkt (9100)
Leicht bewölkt (1500)
 
ALTENSTADT/SCHON
DE 738
Mi 18.05. 16:2023838 %1024
1022
938
O 4 (13)>= 10000Stark bewölkt (9800)
Leicht bewölkt (1500)
 
ALTENSTADT/SCHON
DE 738
Mi 18.05. 15:2023838 %1024
1022
938
ONO 4 (13)>= 10000Stark bewölkt (9800)
Leicht bewölkt (1500)
 

Altimeter: Einstellung am Altimeter (Höhenmesser), die Höhe 0 muss auf diesen Luftdruckwert zeigen, damit das Gerät die Stationshöhe richtig anzeigt.

NN: Luftdruck reduziert auf "Normal Null", auf Meereshöhe, dieser von der Temperatur abhängige Wert wird bisweilen unkorrekt einfach als "Luftdruck" bezeichnet. Eigentlich nur eine fiktive Größe, die es erlaubt, Stationen auf unterschiedlichen Höhen miteinander zu vergleichen.

Station: Realer Luftdruck an der Station.